sensor_id;sensor_type;location;lat;lon;timestamp;pressure;altitude;pressure_sealevel;temperature;humidity
56392;BME280;42289;53.582;9.714;2022-09-01T00:01:35;101601.78;;;12.48;100.00
56392;BME280;42289;53.582;9.714;2022-09-01T00:04:05;101596.94;;;12.37;100.00
56392;BME280;42289;53.582;9.714;2022-09-01T00:06:34;101593.22;;;12.17;100.00
56392;BME280;42289;53.582;9.714;2022-09-01T00:09:06;101596.19;;;12.06;100.00
56392;BME280;42289;53.582;9.714;2022-09-01T00:11:33;101606.13;;;11.93;100.00
56392;BME280;42289;53.582;9.714;2022-09-01T00:14:01;101615.31;;;11.77;100.00
56392;BME280;42289;53.582;9.714;2022-09-01T00:16:29;101618.72;;;11.79;100.00
56392;BME280;42289;53.582;9.714;2022-09-01T00:18:57;101633.47;;;11.80;100.00
56392;BME280;42289;53.582;9.714;2022-09-01T00:21:27;101648.31;;;11.76;100.00
56392;BME280;42289;53.582;9.714;2022-09-01T00:23:54;101659.56;;;11.78;100.00
56392;BME280;42289;53.582;9.714;2022-09-01T00:26:20;101662.91;;;11.82;100.00
56392;BME280;42289;53.582;9.714;2022-09-01T00:28:47;101673.69;;;12.00;100.00
56392;BME280;42289;53.582;9.714;2022-09-01T00:31:15;101675.78;;;12.17;100.00
56392;BME280;42289;53.582;9.714;2022-09-01T00:33:44;101671.47;;;12.16;100.00
56392;BME280;42289;53.582;9.714;2022-09-01T00:36:12;101666.19;;;12.17;100.00
56392;BME280;42289;53.582;9.714;2022-09-01T00:38:39;101659.66;;;12.05;100.00
56392;BME280;42289;53.582;9.714;2022-09-01T00:41:06;101656.22;;;12.03;100.00
56392;BME280;42289;53.582;9.714;2022-09-01T00:43:38;101653.81;;;11.97;100.00
56392;BME280;42289;53.582;9.714;2022-09-01T00:46:07;101652.84;;;12.00;100.00
56392;BME280;42289;53.582;9.714;2022-09-01T00:48:37;101659.47;;;11.82;100.00
56392;BME280;42289;53.582;9.714;2022-09-01T00:51:04;101663.56;;;11.89;100.00
56392;BME280;42289;53.582;9.714;2022-09-01T00:53:34;101668.25;;;11.77;100.00
56392;BME280;42289;53.582;9.714;2022-09-01T00:56:02;101667.59;;;11.71;100.00
56392;BME280;42289;53.582;9.714;2022-09-01T00:58:29;101666.81;;;11.67;100.00
56392;BME280;42289;53.582;9.714;2022-09-01T01:00:56;101685.25;;;11.61;100.00
56392;BME280;42289;53.582;9.714;2022-09-01T01:03:23;101700.47;;;11.75;100.00
56392;BME280;42289;53.582;9.714;2022-09-01T01:05:53;101701.56;;;11.98;100.00
56392;BME280;42289;53.582;9.714;2022-09-01T01:08:24;101694.41;;;12.04;100.00
56392;BME280;42289;53.582;9.714;2022-09-01T01:10:59;101692.31;;;12.16;100.00
56392;BME280;42289;53.582;9.714;2022-09-01T01:13:26;101677.56;;;12.16;100.00
56392;BME280;42289;53.582;9.714;2022-09-01T01:15:53;101683.78;;;12.10;100.00
56392;BME280;42289;53.582;9.714;2022-09-01T01:18:20;101678.44;;;12.15;100.00
56392;BME280;42289;53.582;9.714;2022-09-01T01:20:46;101688.16;;;12.10;100.00
56392;BME280;42289;53.582;9.714;2022-09-01T01:23:36;101689.81;;;12.13;100.00
56392;BME280;42289;53.582;9.714;2022-09-01T01:26:07;101684.75;;;12.08;100.00
56392;BME280;42289;53.582;9.714;2022-09-01T01:28:36;101682.34;;;12.02;100.00
56392;BME280;42289;53.582;9.714;2022-09-01T01:31:05;101679.69;;;12.03;100.00
56392;BME280;42289;53.582;9.714;2022-09-01T01:33:37;101676.53;;;11.92;100.00
56392;BME280;42289;53.582;9.714;2022-09-01T01:36:07;101678.22;;;11.94;100.00
56392;BME280;42289;53.582;9.714;2022-09-01T01:38:37;101684.34;;;11.92;100.00
56392;BME280;42289;53.582;9.714;2022-09-01T01:41:06;101687.88;;;11.89;100.00
56392;BME280;42289;53.582;9.714;2022-09-01T01:43:32;101689.59;;;11.90;100.00
56392;BME280;42289;53.582;9.714;2022-09-01T01:45:59;101687.06;;;11.87;100.00
56392;BME280;42289;53.582;9.714;2022-09-01T01:48:28;101692.38;;;11.84;100.00
56392;BME280;42289;53.582;9.714;2022-09-01T01:50:59;101702.94;;;11.80;100.00
56392;BME280;42289;53.582;9.714;2022-09-01T01:53:27;101700.38;;;11.78;100.00
56392;BME280;42289;53.582;9.714;2022-09-01T01:55:53;101698.91;;;11.69;100.00
56392;BME280;42289;53.582;9.714;2022-09-01T01:58:24;101697.09;;;11.71;100.00
56392;BME280;42289;53.582;9.714;2022-09-01T02:00:52;101697.13;;;11.70;100.00
56392;BME280;42289;53.582;9.714;2022-09-01T02:03:21;101699.06;;;11.63;100.00
56392;BME280;42289;53.582;9.714;2022-09-01T02:05:50;101699.00;;;11.65;100.00
56392;BME280;42289;53.582;9.714;2022-09-01T02:08:18;101700.94;;;11.58;100.00
56392;BME280;42289;53.582;9.714;2022-09-01T02:10:48;101703.28;;;11.67;100.00
56392;BME280;42289;53.582;9.714;2022-09-01T02:13:17;101705.97;;;11.64;100.00
56392;BME280;42289;53.582;9.714;2022-09-01T02:15:48;101705.88;;;11.67;100.00
56392;BME280;42289;53.582;9.714;2022-09-01T02:18:19;101713.91;;;11.61;100.00
56392;BME280;42289;53.582;9.714;2022-09-01T02:20:49;101712.28;;;11.57;100.00
56392;BME280;42289;53.582;9.714;2022-09-01T02:23:16;101712.31;;;11.55;100.00
56392;BME280;42289;53.582;9.714;2022-09-01T02:25:48;101725.25;;;11.58;100.00
56392;BME280;42289;53.582;9.714;2022-09-01T02:28:16;101714.09;;;11.53;100.00
56392;BME280;42289;53.582;9.714;2022-09-01T02:30:46;101721.91;;;11.53;100.00
56392;BME280;42289;53.582;9.714;2022-09-01T02:33:16;101718.00;;;11.38;100.00
56392;BME280;42289;53.582;9.714;2022-09-01T02:35:43;101727.63;;;11.35;100.00
56392;BME280;42289;53.582;9.714;2022-09-01T02:38:10;101728.50;;;11.35;100.00
56392;BME280;42289;53.582;9.714;2022-09-01T02:40:38;101740.47;;;11.41;100.00
56392;BME280;42289;53.582;9.714;2022-09-01T02:43:09;101739.47;;;11.47;100.00
56392;BME280;42289;53.582;9.714;2022-09-01T02:45:38;101736.91;;;11.45;100.00
56392;BME280;42289;53.582;9.714;2022-09-01T02:48:10;101737.16;;;11.36;100.00
56392;BME280;42289;53.582;9.714;2022-09-01T02:50:39;101740.59;;;11.36;100.00
56392;BME280;42289;53.582;9.714;2022-09-01T02:53:07;101740.94;;;11.24;100.00
56392;BME280;42289;53.582;9.714;2022-09-01T02:55:36;101751.44;;;11.21;100.00
56392;BME280;42289;53.582;9.714;2022-09-01T02:58:03;101751.84;;;11.04;100.00
56392;BME280;42289;53.582;9.714;2022-09-01T03:00:30;101766.97;;;10.89;100.00
56392;BME280;42289;53.582;9.714;2022-09-01T03:03:01;101794.00;;;10.82;100.00
56392;BME280;42289;53.582;9.714;2022-09-01T03:05:30;101813.13;;;10.80;100.00
56392;BME280;42289;53.582;9.714;2022-09-01T03:08:00;101821.84;;;10.79;100.00
56392;BME280;42289;53.582;9.714;2022-09-01T03:10:29;101842.63;;;10.80;100.00
56392;BME280;42289;53.582;9.714;2022-09-01T03:13:02;101863.50;;;10.75;100.00
56392;BME280;42289;53.582;9.714;2022-09-01T03:15:30;101874.72;;;10.79;100.00
56392;BME280;42289;53.582;9.714;2022-09-01T03:17:58;101883.34;;;10.80;100.00
56392;BME280;42289;53.582;9.714;2022-09-01T03:20:25;101889.75;;;10.66;100.00
56392;BME280;42289;53.582;9.714;2022-09-01T03:22:53;101897.47;;;10.69;100.00
56392;BME280;42289;53.582;9.714;2022-09-01T03:25:22;101902.75;;;10.65;100.00
56392;BME280;42289;53.582;9.714;2022-09-01T03:27:49;101914.88;;;10.66;100.00
56392;BME280;42289;53.582;9.714;2022-09-01T03:30:15;101914.88;;;10.66;100.00
56392;BME280;42289;53.582;9.714;2022-09-01T03:32:42;101913.97;;;10.68;100.00
56392;BME280;42289;53.582;9.714;2022-09-01T03:35:09;101929.03;;;10.52;100.00
56392;BME280;42289;53.582;9.714;2022-09-01T03:37:37;101935.06;;;10.54;100.00
56392;BME280;42289;53.582;9.714;2022-09-01T03:40:07;101944.22;;;10.72;100.00
56392;BME280;42289;53.582;9.714;2022-09-01T03:42:34;101930.44;;;10.67;100.00
56392;BME280;42289;53.582;9.714;2022-09-01T03:45:00;101932.19;;;10.67;100.00
56392;BME280;42289;53.582;9.714;2022-09-01T03:47:33;101925.19;;;10.70;100.00
56392;BME280;42289;53.582;9.714;2022-09-01T03:50:04;101932.19;;;10.67;100.00
56392;BME280;42289;53.582;9.714;2022-09-01T03:52:31;101927.06;;;10.62;100.00
56392;BME280;42289;53.582;9.714;2022-09-01T03:54:57;101926.97;;;10.68;100.00
56392;BME280;42289;53.582;9.714;2022-09-01T03:57:25;101925.50;;;10.55;100.00
56392;BME280;42289;53.582;9.714;2022-09-01T03:59:54;101922.59;;;10.70;100.00
56392;BME280;42289;53.582;9.714;2022-09-01T04:02:21;101918.69;;;10.49;100.00
56392;BME280;42289;53.582;9.714;2022-09-01T04:04:47;101916.91;;;10.53;100.00
56392;BME280;42289;53.582;9.714;2022-09-01T04:07:14;101928.97;;;10.55;100.00
56392;BME280;42289;53.582;9.714;2022-09-01T04:09:40;101920.53;;;10.44;100.00
56392;BME280;42289;53.582;9.714;2022-09-01T04:12:08;101940.53;;;10.39;100.00
56392;BME280;42289;53.582;9.714;2022-09-01T04:14:36;101945.84;;;10.33;100.00
56392;BME280;42289;53.582;9.714;2022-09-01T04:17:02;101952.84;;;10.29;100.00
56392;BME280;42289;53.582;9.714;2022-09-01T04:19:46;101976.16;;;10.32;100.00
56392;BME280;42289;53.582;9.714;2022-09-01T04:22:13;101983.94;;;10.37;100.00
56392;BME280;42289;53.582;9.714;2022-09-01T04:24:42;101983.91;;;10.38;100.00
56392;BME280;42289;53.582;9.714;2022-09-01T04:27:10;101980.50;;;10.33;100.00
56392;BME280;42289;53.582;9.714;2022-09-01T04:29:39;101987.38;;;10.37;100.00
56392;BME280;42289;53.582;9.714;2022-09-01T04:32:08;101987.56;;;10.25;100.00
56392;BME280;42289;53.582;9.714;2022-09-01T04:34:37;101999.19;;;10.54;100.00
56392;BME280;42289;53.582;9.714;2022-09-01T04:37:07;102003.97;;;10.75;100.00
56392;BME280;42289;53.582;9.714;2022-09-01T04:39:33;102003.91;;;10.79;100.00
56392;BME280;42289;53.582;9.714;2022-09-01T04:42:01;101999.31;;;10.91;100.00
56392;BME280;42289;53.582;9.714;2022-09-01T04:44:28;101989.88;;;10.86;100.00
56392;BME280;42289;53.582;9.714;2022-09-01T04:46:56;101981.94;;;10.93;100.00
56392;BME280;42289;53.582;9.714;2022-09-01T04:49:22;101980.13;;;10.96;100.00
56392;BME280;42289;53.582;9.714;2022-09-01T04:51:51;101976.53;;;11.03;100.00
56392;BME280;42289;53.582;9.714;2022-09-01T04:54:19;101971.63;;;10.87;100.00
56392;BME280;42289;53.582;9.714;2022-09-01T04:56:47;101971.41;;;10.98;100.00
56392;BME280;42289;53.582;9.714;2022-09-01T04:59:16;101974.69;;;11.06;100.00
56392;BME280;42289;53.582;9.714;2022-09-01T05:01:45;101971.56;;;10.92;100.00
56392;BME280;42289;53.582;9.714;2022-09-01T05:04:17;101970.88;;;10.84;100.00
56392;BME280;42289;53.582;9.714;2022-09-01T05:06:45;101975.38;;;10.74;100.00
56392;BME280;42289;53.582;9.714;2022-09-01T05:09:13;101986.59;;;10.77;100.00
56392;BME280;42289;53.582;9.714;2022-09-01T05:11:42;101985.69;;;10.80;100.00
56392;BME280;42289;53.582;9.714;2022-09-01T05:14:10;101993.25;;;10.91;100.00
56392;BME280;42289;53.582;9.714;2022-09-01T05:16:37;101994.81;;;10.98;100.00
56392;BME280;42289;53.582;9.714;2022-09-01T05:19:05;101986.81;;;11.07;100.00
56392;BME280;42289;53.582;9.714;2022-09-01T05:21:40;101976.38;;;11.09;100.00
56392;BME280;42289;53.582;9.714;2022-09-01T05:24:09;101979.69;;;11.16;100.00
56392;BME280;42289;53.582;9.714;2022-09-01T05:26:36;101978.69;;;11.23;100.00
56392;BME280;42289;53.582;9.714;2022-09-01T05:29:05;101970.84;;;11.24;100.00
56392;BME280;42289;53.582;9.714;2022-09-01T05:31:38;101967.28;;;11.28;100.00
56392;BME280;42289;53.582;9.714;2022-09-01T05:34:06;101967.13;;;11.35;100.00
56392;BME280;42289;53.582;9.714;2022-09-01T05:36:34;101971.31;;;11.42;100.00
56392;BME280;42289;53.582;9.714;2022-09-01T05:39:04;101969.41;;;11.49;100.00
56392;BME280;42289;53.582;9.714;2022-09-01T05:41:31;101959.63;;;11.58;100.00
56392;BME280;42289;53.582;9.714;2022-09-01T05:43:58;101949.16;;;11.60;100.00
56392;BME280;42289;53.582;9.714;2022-09-01T05:46:27;101950.94;;;11.58;100.00
56392;BME280;42289;53.582;9.714;2022-09-01T05:48:54;101959.50;;;11.63;100.00
56392;BME280;42289;53.582;9.714;2022-09-01T05:51:23;101959.97;;;11.79;100.00
56392;BME280;42289;53.582;9.714;2022-09-01T05:53:51;101953.88;;;11.80;100.00
56392;BME280;42289;53.582;9.714;2022-09-01T05:56:21;101950.06;;;11.95;100.00
56392;BME280;42289;53.582;9.714;2022-09-01T05:58:49;101949.97;;;11.98;100.00
56392;BME280;42289;53.582;9.714;2022-09-01T06:01:20;101946.88;;;12.17;100.00
56392;BME280;42289;53.582;9.714;2022-09-01T06:03:48;101938.28;;;12.13;100.00
56392;BME280;42289;53.582;9.714;2022-09-01T06:06:19;101933.09;;;12.11;100.00
56392;BME280;42289;53.582;9.714;2022-09-01T06:08:47;101934.69;;;12.19;100.00
56392;BME280;42289;53.582;9.714;2022-09-01T06:11:14;101925.81;;;12.24;100.00
56392;BME280;42289;53.582;9.714;2022-09-01T06:13:43;101923.72;;;12.37;100.00
56392;BME280;42289;53.582;9.714;2022-09-01T06:16:11;101918.22;;;12.47;100.00
56392;BME280;42289;53.582;9.714;2022-09-01T06:18:38;101910.19;;;12.54;100.00
56392;BME280;42289;53.582;9.714;2022-09-01T06:21:05;101907.31;;;12.64;100.00
56392;BME280;42289;53.582;9.714;2022-09-01T06:23:32;101899.97;;;12.76;100.00
56392;BME280;42289;53.582;9.714;2022-09-01T06:26:00;101891.84;;;12.86;100.00
56392;BME280;42289;53.582;9.714;2022-09-01T06:28:28;101885.47;;;12.96;100.00
56392;BME280;42289;53.582;9.714;2022-09-01T06:30:57;101879.75;;;13.11;100.00
56392;BME280;42289;53.582;9.714;2022-09-01T06:33:24;101869.94;;;13.18;100.00
56392;BME280;42289;53.582;9.714;2022-09-01T06:35:51;101865.25;;;13.29;100.00
56392;BME280;42289;53.582;9.714;2022-09-01T06:38:20;101845.97;;;13.34;100.00
56392;BME280;42289;53.582;9.714;2022-09-01T06:40:46;101854.88;;;13.53;100.00
56392;BME280;42289;53.582;9.714;2022-09-01T06:43:13;101832.06;;;14.07;100.00
56392;BME280;42289;53.582;9.714;2022-09-01T06:45:42;101792.97;;;14.50;100.00
56392;BME280;42289;53.582;9.714;2022-09-01T06:48:10;101728.22;;;15.19;100.00
56392;BME280;42289;53.582;9.714;2022-09-01T06:50:41;101697.47;;;16.19;100.00
56392;BME280;42289;53.582;9.714;2022-09-01T06:53:08;101722.25;;;16.85;100.00
56392;BME280;42289;53.582;9.714;2022-09-01T06:55:36;101816.06;;;17.69;100.00
56392;BME280;42289;53.582;9.714;2022-09-01T06:58:03;101954.50;;;18.23;100.00
56392;BME280;42289;53.582;9.714;2022-09-01T07:00:32;102042.91;;;18.27;100.00
56392;BME280;42289;53.582;9.714;2022-09-01T07:02:59;102074.31;;;18.12;100.00
56392;BME280;42289;53.582;9.714;2022-09-01T07:05:37;101933.91;;;19.27;100.00
56392;BME280;42289;53.582;9.714;2022-09-01T07:08:05;101976.31;;;19.69;100.00
56392;BME280;42289;53.582;9.714;2022-09-01T07:10:40;102005.25;;;19.70;100.00
56392;BME280;42289;53.582;9.714;2022-09-01T07:13:10;102026.84;;;19.77;100.00
56392;BME280;42289;53.582;9.714;2022-09-01T07:15:40;102077.69;;;19.64;100.00
56392;BME280;42289;53.582;9.714;2022-09-01T07:18:07;102111.34;;;20.07;100.00
56392;BME280;42289;53.582;9.714;2022-09-01T07:20:35;102116.34;;;20.12;100.00
56392;BME280;42289;53.582;9.714;2022-09-01T07:23:03;102155.19;;;20.40;100.00
56392;BME280;42289;53.582;9.714;2022-09-01T07:25:30;102172.06;;;20.38;100.00
56392;BME280;42289;53.582;9.714;2022-09-01T07:28:00;102165.84;;;21.27;100.00
56392;BME280;42289;53.582;9.714;2022-09-01T07:30:27;102210.75;;;21.99;100.00
56392;BME280;42289;53.582;9.714;2022-09-01T07:32:56;102238.22;;;21.40;100.00
56392;BME280;42289;53.582;9.714;2022-09-01T07:35:23;102266.50;;;22.38;100.00
56392;BME280;42289;53.582;9.714;2022-09-01T07:37:50;102284.47;;;22.05;100.00
56392;BME280;42289;53.582;9.714;2022-09-01T07:40:18;102317.94;;;22.35;100.00
56392;BME280;42289;53.582;9.714;2022-09-01T07:42:47;102340.31;;;22.44;100.00
56392;BME280;42289;53.582;9.714;2022-09-01T07:45:15;102337.47;;;21.91;100.00
56392;BME280;42289;53.582;9.714;2022-09-01T07:47:42;102359.41;;;21.78;100.00
56392;BME280;42289;53.582;9.714;2022-09-01T07:50:11;102366.84;;;21.12;100.00
56392;BME280;42289;53.582;9.714;2022-09-01T07:52:40;102361.63;;;20.80;100.00
56392;BME280;42289;53.582;9.714;2022-09-01T07:55:10;102377.56;;;20.95;100.00
56392;BME280;42289;53.582;9.714;2022-09-01T07:57:38;102373.13;;;20.95;100.00
56392;BME280;42289;53.582;9.714;2022-09-01T08:00:08;102374.94;;;21.40;100.00
56392;BME280;42289;53.582;9.714;2022-09-01T08:02:35;102386.72;;;21.79;100.00
56392;BME280;42289;53.582;9.714;2022-09-01T08:05:04;102392.03;;;21.79;100.00
56392;BME280;42289;53.582;9.714;2022-09-01T08:07:34;102409.84;;;23.16;100.00
56392;BME280;42289;53.582;9.714;2022-09-01T08:10:00;102413.09;;;22.24;100.00
56392;BME280;42289;53.582;9.714;2022-09-01T08:12:28;102419.53;;;23.03;100.00
56392;BME280;42289;53.582;9.714;2022-09-01T08:14:55;102427.84;;;22.28;100.00
56392;BME280;42289;53.582;9.714;2022-09-01T08:17:21;102417.75;;;22.76;100.00
56392;BME280;42289;53.582;9.714;2022-09-01T08:19:48;102423.59;;;22.81;100.00
56392;BME280;42289;53.582;9.714;2022-09-01T08:22:14;102419.59;;;23.16;100.00
56392;BME280;42289;53.582;9.714;2022-09-01T08:24:41;102414.03;;;23.46;100.00
56392;BME280;42289;53.582;9.714;2022-09-01T08:27:08;102412.22;;;23.47;100.00
56392;BME280;42289;53.582;9.714;2022-09-01T08:29:35;102419.25;;;22.39;100.00
56392;BME280;42289;53.582;9.714;2022-09-01T08:32:02;102421.25;;;22.21;100.00
56392;BME280;42289;53.582;9.714;2022-09-01T08:34:31;102410.84;;;21.89;100.00
56392;BME280;42289;53.582;9.714;2022-09-01T08:36:57;102409.56;;;23.47;100.00
56392;BME280;42289;53.582;9.714;2022-09-01T08:39:24;102409.84;;;23.29;98.89
56392;BME280;42289;53.582;9.714;2022-09-01T08:41:58;102401.81;;;23.04;96.22
56392;BME280;42289;53.582;9.714;2022-09-01T08:44:35;102405.19;;;23.33;96.98
56392;BME280;42289;53.582;9.714;2022-09-01T08:47:09;102409.44;;;22.95;98.74
56392;BME280;42289;53.582;9.714;2022-09-01T08:49:37;102403.59;;;23.30;96.98
56392;BME280;42289;53.582;9.714;2022-09-01T08:52:10;102404.66;;;24.31;97.24
56392;BME280;42289;53.582;9.714;2022-09-01T08:54:43;102402.56;;;23.72;95.11
56392;BME280;42289;53.582;9.714;2022-09-01T08:57:13;102422.09;;;22.21;99.21
56392;BME280;42289;53.582;9.714;2022-09-01T08:59:41;102414.09;;;21.49;100.00
56392;BME280;42289;53.582;9.714;2022-09-01T09:02:22;102412.28;;;21.80;100.00
56392;BME280;42289;53.582;9.714;2022-09-01T09:04:59;102419.34;;;20.88;100.00
56392;BME280;42289;53.582;9.714;2022-09-01T09:07:49;102428.25;;;20.22;100.00
56392;BME280;42289;53.582;9.714;2022-09-01T09:10:22;102417.38;;;20.60;100.00
56392;BME280;42289;53.582;9.714;2022-09-01T09:13:01;102419.59;;;20.02;100.00
56392;BME280;42289;53.582;9.714;2022-09-01T09:15:37;102407.69;;;19.77;100.00
56392;BME280;42289;53.582;9.714;2022-09-01T09:18:15;102413.72;;;19.79;100.00
56392;BME280;42289;53.582;9.714;2022-09-01T09:20:43;102400.88;;;19.73;100.00
56392;BME280;42289;53.582;9.714;2022-09-01T09:23:16;102406.28;;;19.88;100.00
56392;BME280;42289;53.582;9.714;2022-09-01T09:25:46;102402.97;;;19.84;100.00
56392;BME280;42289;53.582;9.714;2022-09-01T09:28:13;102398.06;;;19.94;100.00
56392;BME280;42289;53.582;9.714;2022-09-01T09:30:39;102401.88;;;20.04;100.00
56392;BME280;42289;53.582;9.714;2022-09-01T09:33:08;102401.88;;;20.04;100.00
56392;BME280;42289;53.582;9.714;2022-09-01T09:35:38;102400.63;;;19.60;100.00
56392;BME280;42289;53.582;9.714;2022-09-01T09:38:16;102394.88;;;19.70;100.00
56392;BME280;42289;53.582;9.714;2022-09-01T09:40:55;102394.44;;;19.61;100.00
56392;BME280;42289;53.582;9.714;2022-09-01T09:43:24;102389.81;;;19.65;100.00
56392;BME280;42289;53.582;9.714;2022-09-01T09:46:23;102392.81;;;19.59;100.00
56392;BME280;42289;53.582;9.714;2022-09-01T09:49:09;102398.22;;;19.73;100.00
56392;BME280;42289;53.582;9.714;2022-09-01T09:51:37;102396.06;;;19.81;100.00
56392;BME280;42289;53.582;9.714;2022-09-01T09:54:12;102389.59;;;19.87;100.00
56392;BME280;42289;53.582;9.714;2022-09-01T09:56:40;102385.06;;;19.56;100.00
56392;BME280;42289;53.582;9.714;2022-09-01T09:59:17;102392.31;;;19.86;100.00
56392;BME280;42289;53.582;9.714;2022-09-01T10:01:45;102379.66;;;19.75;100.00
56392;BME280;42289;53.582;9.714;2022-09-01T10:04:35;102373.38;;;19.77;100.00
56392;BME280;42289;53.582;9.714;2022-09-01T10:07:22;102375.00;;;19.80;100.00
56392;BME280;42289;53.582;9.714;2022-09-01T10:09:49;102370.03;;;19.74;100.00
56392;BME280;42289;53.582;9.714;2022-09-01T10:12:16;102368.81;;;19.81;100.00
56392;BME280;42289;53.582;9.714;2022-09-01T10:14:46;102374.59;;;19.88;100.00
56392;BME280;42289;53.582;9.714;2022-09-01T10:17:18;102369.69;;;19.81;100.00
56392;BME280;42289;53.582;9.714;2022-09-01T10:19:49;102373.19;;;19.98;100.00
56392;BME280;42289;53.582;9.714;2022-09-01T10:22:18;102363.00;;;20.24;100.00
56392;BME280;42289;53.582;9.714;2022-09-01T10:24:45;102349.16;;;20.82;95.90
56392;BME280;42289;53.582;9.714;2022-09-01T10:27:17;102345.03;;;21.54;96.52
56392;BME280;42289;53.582;9.714;2022-09-01T10:29:48;102348.81;;;21.64;96.03
56392;BME280;42289;53.582;9.714;2022-09-01T10:32:20;102344.00;;;21.71;100.00
56392;BME280;42289;53.582;9.714;2022-09-01T10:34:48;102348.16;;;21.60;95.95
56392;BME280;42289;53.582;9.714;2022-09-01T10:37:15;102355.06;;;21.77;100.00
56392;BME280;42289;53.582;9.714;2022-09-01T10:40:11;102353.56;;;21.28;100.00
56392;BME280;42289;53.582;9.714;2022-09-01T10:42:40;102363.94;;;20.87;100.00
56392;BME280;42289;53.582;9.714;2022-09-01T10:45:16;102363.34;;;20.49;100.00
56392;BME280;42289;53.582;9.714;2022-09-01T10:47:47;102352.50;;;20.06;100.00
56392;BME280;42289;53.582;9.714;2022-09-01T10:50:26;102355.69;;;20.45;100.00
56392;BME280;42289;53.582;9.714;2022-09-01T10:52:57;102353.03;;;20.29;100.00
56392;BME280;42289;53.582;9.714;2022-09-01T10:55:28;102356.63;;;20.28;100.00
56392;BME280;42289;53.582;9.714;2022-09-01T10:58:07;102352.66;;;20.99;100.00
56392;BME280;42289;53.582;9.714;2022-09-01T11:00:50;102346.19;;;21.33;98.55
56392;BME280;42289;53.582;9.714;2022-09-01T11:03:54;102341.25;;;21.13;95.83
56392;BME280;42289;53.582;9.714;2022-09-01T11:06:43;102336.25;;;21.23;95.44
56392;BME280;42289;53.582;9.714;2022-09-01T11:09:19;102335.91;;;21.29;96.22
56392;BME280;42289;53.582;9.714;2022-09-01T11:11:54;102337.84;;;21.70;96.83
56392;BME280;42289;53.582;9.714;2022-09-01T11:14:26;102335.94;;;22.01;98.77
56392;BME280;42289;53.582;9.714;2022-09-01T11:17:12;102325.22;;;22.17;93.81
56392;BME280;42289;53.582;9.714;2022-09-01T11:19:43;102328.13;;;22.41;97.73
56392;BME280;42289;53.582;9.714;2022-09-01T11:22:20;102325.25;;;22.44;94.73
56392;BME280;42289;53.582;9.714;2022-09-01T11:24:51;102300.13;;;22.37;86.53
56392;BME280;42289;53.582;9.714;2022-09-01T11:27:59;102304.66;;;23.02;87.72
56392;BME280;42289;53.582;9.714;2022-09-01T11:30:35;102294.25;;;23.25;83.33
56392;BME280;42289;53.582;9.714;2022-09-01T11:33:11;102293.66;;;23.22;81.54
56392;BME280;42289;53.582;9.714;2022-09-01T11:35:41;102297.19;;;23.08;81.88
56392;BME280;42289;53.582;9.714;2022-09-01T11:38:11;102297.44;;;22.64;87.03
56392;BME280;42289;53.582;9.714;2022-09-01T11:40:40;102300.56;;;22.02;88.00
56392;BME280;42289;53.582;9.714;2022-09-01T11:43:08;102303.53;;;21.83;91.54
56392;BME280;42289;53.582;9.714;2022-09-01T11:45:43;102313.28;;;21.82;100.00
56392;BME280;42289;53.582;9.714;2022-09-01T11:48:16;102314.00;;;21.84;100.00
56392;BME280;42289;53.582;9.714;2022-09-01T11:50:44;102302.22;;;21.61;100.00
56392;BME280;42289;53.582;9.714;2022-09-01T11:53:13;102298.38;;;21.22;94.17
56392;BME280;42289;53.582;9.714;2022-09-01T11:55:43;102316.22;;;21.18;100.00
56392;BME280;42289;53.582;9.714;2022-09-01T11:58:12;102321.13;;;21.10;100.00
56392;BME280;42289;53.582;9.714;2022-09-01T12:00:40;102309.03;;;21.06;97.20
56392;BME280;42289;53.582;9.714;2022-09-01T12:03:19;102299.81;;;20.83;98.13
56392;BME280;42289;53.582;9.714;2022-09-01T12:05:52;102307.84;;;20.81;100.00
56392;BME280;42289;53.582;9.714;2022-09-01T12:08:24;102302.41;;;20.69;96.11
56392;BME280;42289;53.582;9.714;2022-09-01T12:11:02;102306.41;;;20.60;96.98
56392;BME280;42289;53.582;9.714;2022-09-01T12:13:29;102306.34;;;20.45;97.82
56392;BME280;42289;53.582;9.714;2022-09-01T12:15:57;102298.81;;;20.54;96.83
56392;BME280;42289;53.582;9.714;2022-09-01T12:18:27;102304.38;;;20.49;95.46
56392;BME280;42289;53.582;9.714;2022-09-01T12:20:57;102298.00;;;20.37;96.57
56392;BME280;42289;53.582;9.714;2022-09-01T12:23:25;102296.19;;;20.38;96.25
56392;BME280;42289;53.582;9.714;2022-09-01T12:25:54;102290.31;;;20.48;94.76
56392;BME280;42289;53.582;9.714;2022-09-01T12:28:22;102285.28;;;20.76;95.06
56392;BME280;42289;53.582;9.714;2022-09-01T12:30:49;102281.91;;;20.88;94.69
56392;BME280;42289;53.582;9.714;2022-09-01T12:33:17;102277.03;;;21.25;91.69
56392;BME280;42289;53.582;9.714;2022-09-01T12:35:44;102288.75;;;21.21;93.19
56392;BME280;42289;53.582;9.714;2022-09-01T12:38:28;102288.91;;;21.04;98.71
56392;BME280;42289;53.582;9.714;2022-09-01T12:40:56;102284.41;;;21.06;95.75
56392;BME280;42289;53.582;9.714;2022-09-01T12:43:32;102287.28;;;20.87;95.22
56392;BME280;42289;53.582;9.714;2022-09-01T12:45:59;102278.09;;;20.78;96.56
56392;BME280;42289;53.582;9.714;2022-09-01T12:48:30;102278.69;;;20.67;95.58
56392;BME280;42289;53.582;9.714;2022-09-01T12:50:58;102281.78;;;20.43;96.60
56392;BME280;42289;53.582;9.714;2022-09-01T12:53:29;102277.63;;;20.39;98.13
56392;BME280;42289;53.582;9.714;2022-09-01T12:56:17;102282.91;;;20.39;100.00